createdAt,value
2022-08-22T04:02:58.862Z,99.73
2022-08-22T04:05:44.273Z,99.46
2022-08-22T04:08:36.304Z,99.87
2022-08-22T04:11:44.294Z,100.00
2022-08-22T04:14:35.972Z,100.00
2022-08-22T04:17:30.258Z,100.00
2022-08-22T04:20:21.956Z,100.00
2022-08-22T04:23:23.957Z,100.00
2022-08-22T04:25:54.414Z,100.00
2022-08-22T04:28:30.625Z,100.00
2022-08-22T04:31:05.878Z,100.00
2022-08-22T04:33:41.607Z,100.00
2022-08-22T04:36:17.589Z,100.00
2022-08-22T04:38:49.539Z,100.00
2022-08-22T04:41:24.457Z,100.00
2022-08-22T04:43:57.593Z,100.00
2022-08-22T04:46:36.734Z,100.00
2022-08-22T04:49:09.607Z,100.00
2022-08-22T04:51:46.108Z,100.00
2022-08-22T04:54:39.509Z,100.00
2022-08-22T04:57:22.050Z,100.00
2022-08-22T04:59:51.177Z,100.00
2022-08-22T05:02:24.078Z,100.00
2022-08-22T05:04:59.071Z,100.00
2022-08-22T05:07:36.241Z,100.00
2022-08-22T05:10:12.031Z,100.00
2022-08-22T05:12:44.407Z,100.00
2022-08-22T05:15:23.262Z,100.00
2022-08-22T05:17:54.173Z,100.00
2022-08-22T05:20:26.292Z,100.00
2022-08-22T05:22:59.397Z,100.00
2022-08-22T05:25:33.536Z,100.00
2022-08-22T05:28:12.054Z,100.00
2022-08-22T05:30:40.820Z,100.00
2022-08-22T05:33:19.419Z,100.00
2022-08-22T05:35:55.825Z,100.00
2022-08-22T05:38:31.406Z,100.00
2022-08-22T05:41:06.618Z,100.00
2022-08-22T05:43:38.779Z,100.00
2022-08-22T05:46:10.126Z,100.00
2022-08-22T05:48:43.649Z,100.00
2022-08-22T05:51:19.732Z,100.00
2022-08-22T05:53:54.261Z,100.00
2022-08-22T05:56:30.413Z,100.00
2022-08-22T05:59:02.711Z,100.00
2022-08-22T06:01:43.494Z,100.00
2022-08-22T06:04:18.316Z,100.00
2022-08-22T06:06:53.793Z,100.00
2022-08-22T06:09:35.360Z,100.00
2022-08-22T06:12:16.465Z,100.00
2022-08-22T06:14:58.248Z,100.00
2022-08-22T06:17:31.986Z,100.00
2022-08-22T06:20:00.995Z,100.00
2022-08-22T06:22:33.734Z,100.00
2022-08-22T06:25:08.010Z,100.00
2022-08-22T06:27:36.416Z,100.00
2022-08-22T06:30:07.212Z,100.00
2022-08-22T06:32:58.938Z,100.00
2022-08-22T06:35:52.606Z,100.00
2022-08-22T06:38:21.432Z,100.00
2022-08-22T06:40:54.123Z,100.00
2022-08-22T06:43:24.603Z,100.00
2022-08-22T06:45:53.496Z,100.00
2022-08-22T06:48:24.473Z,100.00
2022-08-22T06:50:58.495Z,99.80
2022-08-22T06:53:32.492Z,100.00
2022-08-22T06:56:05.522Z,100.00
2022-08-22T06:58:38.319Z,99.98
2022-08-22T07:01:12.326Z,98.50
2022-08-22T07:03:44.843Z,97.99
2022-08-22T07:06:16.904Z,97.08
2022-08-22T07:08:45.178Z,96.23
2022-08-22T07:11:18.408Z,95.64
2022-08-22T07:13:53.491Z,95.26
2022-08-22T07:16:31.061Z,94.10
2022-08-22T07:19:00.720Z,93.47
2022-08-22T07:21:30.754Z,92.92
2022-08-22T07:24:01.974Z,92.49
2022-08-22T07:26:40.182Z,91.50
2022-08-22T07:29:19.599Z,90.98
2022-08-22T07:31:57.706Z,88.78
2022-08-22T07:34:37.517Z,89.01
2022-08-22T07:37:10.740Z,88.68
2022-08-22T07:39:50.206Z,87.88
2022-08-22T07:42:22.415Z,87.12
2022-08-22T07:45:10.038Z,86.39
2022-08-22T07:47:57.053Z,85.98
2022-08-22T07:50:29.809Z,85.86
2022-08-22T07:53:06.465Z,83.98
2022-08-22T07:55:34.857Z,83.61
2022-08-22T07:58:19.087Z,83.18
2022-08-22T08:00:49.847Z,83.21
2022-08-22T08:03:18.533Z,83.09
2022-08-22T08:05:46.636Z,82.31
2022-08-22T08:08:21.880Z,81.22
2022-08-22T08:10:52.104Z,80.98
2022-08-22T08:13:26.012Z,80.31
2022-08-22T08:15:53.842Z,78.45
2022-08-22T08:18:25.785Z,76.20
2022-08-22T08:20:57.724Z,75.88
2022-08-22T08:23:26.978Z,75.50
2022-08-22T08:26:03.129Z,73.65
2022-08-22T08:28:34.939Z,72.54
2022-08-22T08:31:19.150Z,70.59
2022-08-22T08:33:51.625Z,71.53
2022-08-22T08:36:34.114Z,70.54
2022-08-22T08:39:12.566Z,70.54
2022-08-22T08:42:27.031Z,70.64
2022-08-22T08:45:21.790Z,67.95
2022-08-22T08:48:19.889Z,68.87
2022-08-22T08:54:11.173Z,66.87
2022-08-22T08:56:51.320Z,67.06
2022-08-22T08:59:34.673Z,67.13
2022-08-22T09:02:38.538Z,66.25
2022-08-22T09:05:30.900Z,65.20
2022-08-22T09:08:21.147Z,63.60
2022-08-22T09:11:14.306Z,63.14
2022-08-22T09:13:55.639Z,63.44
2022-08-22T09:16:45.051Z,60.60
2022-08-22T09:19:45.822Z,60.99
2022-08-22T09:22:34.925Z,62.43
2022-08-22T09:25:28.687Z,62.19
2022-08-22T09:28:13.852Z,58.81
2022-08-22T09:31:32.706Z,59.51
2022-08-22T09:34:11.441Z,60.77
2022-08-22T09:37:02.749Z,60.37
2022-08-22T09:39:36.476Z,57.80
2022-08-22T09:40:15.239Z,67.65
2022-08-22T09:42:17.607Z,57.39
2022-08-22T09:44:58.661Z,54.89
2022-08-22T09:47:33.190Z,54.59
2022-08-22T09:50:14.306Z,54.63
2022-08-22T09:53:05.230Z,56.43
2022-08-22T09:55:45.840Z,55.19
2022-08-22T09:58:23.557Z,53.39
2022-08-22T10:00:56.029Z,54.63
2022-08-22T10:03:34.638Z,53.64
2022-08-22T10:06:13.182Z,54.58
2022-08-22T10:08:49.083Z,51.40
2022-08-22T10:11:26.887Z,51.46
2022-08-22T10:14:02.254Z,51.07
2022-08-22T10:16:41.254Z,51.43
2022-08-22T10:19:16.912Z,50.97
2022-08-22T10:22:11.150Z,52.02
2022-08-22T10:24:48.959Z,50.19
2022-08-22T10:27:29.702Z,50.12
2022-08-22T10:30:08.008Z,48.79
2022-08-22T10:32:43.061Z,48.69
2022-08-22T10:35:21.987Z,48.79
2022-08-22T10:37:59.990Z,48.00
2022-08-22T10:40:36.790Z,47.80
2022-08-22T10:43:12.798Z,46.74
2022-08-22T10:45:44.748Z,46.21
2022-08-22T10:48:35.578Z,47.87
2022-08-22T10:51:19.416Z,46.84
2022-08-22T10:54:00.286Z,46.59
2022-08-22T10:56:35.801Z,46.69
2022-08-22T10:59:13.817Z,45.67
2022-08-22T11:01:52.305Z,45.25
2022-08-22T11:04:40.882Z,45.47
2022-08-22T11:07:36.652Z,46.27
2022-08-22T11:10:16.316Z,45.97
2022-08-22T11:12:52.916Z,46.08
2022-08-22T11:15:43.856Z,44.72
2022-08-22T11:18:21.673Z,45.15
2022-08-22T11:21:00.042Z,43.85
2022-08-22T11:23:40.021Z,43.93
2022-08-22T11:26:30.125Z,43.84
2022-08-22T11:29:25.068Z,42.18
2022-08-22T11:32:07.744Z,41.50
2022-08-22T11:34:58.185Z,41.28
2022-08-22T11:37:47.298Z,41.31
2022-08-22T11:40:29.179Z,40.71
2022-08-22T11:43:06.438Z,39.00
2022-08-22T11:45:46.530Z,39.53
2022-08-22T11:48:24.309Z,39.96
2022-08-22T11:51:02.368Z,39.19
2022-08-22T11:53:47.887Z,40.52
2022-08-22T11:56:27.817Z,40.09
2022-08-22T11:59:03.209Z,38.47
2022-08-22T12:01:42.279Z,38.27
2022-08-22T12:04:16.932Z,38.42
2022-08-22T12:06:51.573Z,38.06
2022-08-22T12:09:30.637Z,36.79
2022-08-22T12:12:08.919Z,37.90
2022-08-22T12:14:43.216Z,36.70
2022-08-22T12:17:55.156Z,36.46
2022-08-22T12:20:45.386Z,36.82
2022-08-22T12:23:48.561Z,37.24
2022-08-22T12:26:26.856Z,37.06
2022-08-22T12:29:15.064Z,37.53
2022-08-22T12:32:27.774Z,37.15
2022-08-22T12:35:13.876Z,36.89
2022-08-22T12:38:03.063Z,37.04
2022-08-22T12:40:53.617Z,35.97
2022-08-22T12:43:39.953Z,35.74
2022-08-22T12:46:17.382Z,35.92
2022-08-22T12:48:57.843Z,35.83
2022-08-22T12:51:33.350Z,34.49
2022-08-22T12:54:28.980Z,34.36
2022-08-22T12:57:10.580Z,35.24
2022-08-22T12:59:55.764Z,34.22
2022-08-22T13:02:29.121Z,34.83
2022-08-22T13:05:00.787Z,33.60
2022-08-22T13:07:31.681Z,33.61
2022-08-22T13:10:05.004Z,34.26
2022-08-22T13:12:39.917Z,34.30
2022-08-22T13:15:29.681Z,33.44
2022-08-22T13:18:18.784Z,33.54
2022-08-22T13:20:51.725Z,33.40
2022-08-22T13:23:28.761Z,32.42
2022-08-22T13:26:09.297Z,32.36
2022-08-22T13:28:45.694Z,31.48
2022-08-22T13:31:25.320Z,31.21
2022-08-22T13:33:59.946Z,31.06
2022-08-22T13:36:31.256Z,30.85
2022-08-22T13:39:06.527Z,31.08
2022-08-22T13:41:44.258Z,31.41
2022-08-22T13:44:18.052Z,30.20
2022-08-22T13:47:13.222Z,31.00
2022-08-22T13:49:38.713Z,29.78
2022-08-22T13:52:28.846Z,30.51
2022-08-22T13:55:03.346Z,30.68
2022-08-22T13:57:42.953Z,30.05
2022-08-22T14:00:59.261Z,29.72
2022-08-22T14:03:36.434Z,29.84
2022-08-22T14:06:35.550Z,28.99
2022-08-22T14:09:17.412Z,29.56
2022-08-22T14:12:12.671Z,29.43
2022-08-22T14:14:46.094Z,30.37
2022-08-22T14:17:20.855Z,29.15
2022-08-22T14:19:59.561Z,27.63
2022-08-22T14:22:35.206Z,29.37
2022-08-22T14:25:08.486Z,28.80
2022-08-22T14:27:39.701Z,28.07
2022-08-22T14:30:15.605Z,28.13
2022-08-22T14:32:48.674Z,27.05
2022-08-22T14:35:34.196Z,27.20
2022-08-22T14:38:21.510Z,27.94
2022-08-22T14:41:00.429Z,27.76
2022-08-22T14:43:49.237Z,28.12
2022-08-22T14:46:24.016Z,27.95
2022-08-22T14:49:14.409Z,28.46
2022-08-22T14:51:50.847Z,28.04
2022-08-22T14:54:22.084Z,29.39
2022-08-22T14:56:52.690Z,29.66
2022-08-22T14:59:33.117Z,28.88
2022-08-22T15:02:06.777Z,28.82
2022-08-22T15:04:38.321Z,29.31
2022-08-22T15:07:09.017Z,28.64
2022-08-22T15:09:41.603Z,28.80
2022-08-22T15:12:22.330Z,29.24
2022-08-22T15:14:52.931Z,29.88
2022-08-22T15:17:39.933Z,30.20
2022-08-22T15:20:27.649Z,31.32
2022-08-22T15:23:03.303Z,31.93
2022-08-22T15:25:41.155Z,31.52
2022-08-22T15:28:20.324Z,30.86
2022-08-22T15:30:59.890Z,30.07
2022-08-22T15:33:33.592Z,30.02
2022-08-22T15:36:16.283Z,30.54
2022-08-22T15:38:48.798Z,30.96
2022-08-22T15:41:38.331Z,30.62
2022-08-22T15:44:14.847Z,29.94
2022-08-22T15:47:03.799Z,31.19
2022-08-22T15:49:36.104Z,30.63
2022-08-22T15:52:15.010Z,30.40
2022-08-22T15:55:21.150Z,30.71
2022-08-22T15:57:59.975Z,30.43
2022-08-22T16:00:34.937Z,31.64
2022-08-22T16:03:09.375Z,30.86
2022-08-22T16:05:54.567Z,31.33
2022-08-22T16:08:27.557Z,30.82
2022-08-22T16:11:18.822Z,30.84
2022-08-22T16:13:48.116Z,30.80
2022-08-22T16:16:49.034Z,30.33
2022-08-22T16:19:21.781Z,31.08
2022-08-22T16:22:10.280Z,30.72
2022-08-22T16:25:10.329Z,31.01
2022-08-22T16:27:53.011Z,31.32
2022-08-22T16:30:34.795Z,30.77
2022-08-22T16:33:04.411Z,31.10
2022-08-22T16:36:25.692Z,30.50
2022-08-22T16:38:57.810Z,31.47
2022-08-22T16:41:30.658Z,30.63
2022-08-22T16:44:40.325Z,30.63
2022-08-22T16:47:13.906Z,31.26
2022-08-22T16:49:56.866Z,31.60
2022-08-22T16:52:54.382Z,31.45
2022-08-22T16:55:59.104Z,31.60
2022-08-22T16:58:57.744Z,32.01
2022-08-22T17:01:41.196Z,31.95
2022-08-22T17:04:20.925Z,32.32
2022-08-22T17:07:02.122Z,32.70
2022-08-22T17:10:00.660Z,32.33
2022-08-22T17:12:45.268Z,32.37
2022-08-22T17:15:28.957Z,32.30
2022-08-22T17:18:14.865Z,32.56
2022-08-22T17:20:50.650Z,31.92
2022-08-22T17:23:40.354Z,32.02
2022-08-22T17:26:20.780Z,32.40
2022-08-22T17:29:04.378Z,33.76
2022-08-22T17:31:44.292Z,33.29
2022-08-22T17:34:26.526Z,32.75
2022-08-22T17:37:07.713Z,32.80
2022-08-22T17:40:03.552Z,33.25
2022-08-22T17:43:04.639Z,33.22
2022-08-22T17:45:47.826Z,33.29
2022-08-22T17:48:21.931Z,32.97
2022-08-22T17:51:17.975Z,33.14
2022-08-22T17:54:14.631Z,33.58
2022-08-22T17:57:05.458Z,33.21
2022-08-22T17:59:53.109Z,33.39
2022-08-22T18:02:29.843Z,33.65
2022-08-22T18:05:10.686Z,33.84
2022-08-22T18:07:56.474Z,34.01
2022-08-22T18:10:44.194Z,34.29
2022-08-22T18:13:17.109Z,34.79
2022-08-22T18:15:51.909Z,35.08
2022-08-22T18:18:31.998Z,34.71
2022-08-22T18:21:20.423Z,35.37
2022-08-22T18:24:04.468Z,35.10
2022-08-22T18:26:45.082Z,35.62
2022-08-22T18:29:17.290Z,35.39
2022-08-22T18:31:50.740Z,35.78
2022-08-22T18:34:26.818Z,35.76
2022-08-22T18:37:04.260Z,36.06
2022-08-22T18:39:42.399Z,35.87
2022-08-22T18:42:28.354Z,36.08
2022-08-22T18:44:56.187Z,36.21
2022-08-22T18:47:27.719Z,36.35
2022-08-22T18:49:57.953Z,36.44
2022-08-22T18:52:39.318Z,36.51
2022-08-22T18:55:23.140Z,36.87
2022-08-22T18:58:05.988Z,36.65
2022-08-22T19:00:54.263Z,37.01
2022-08-22T19:03:40.705Z,37.35
2022-08-22T19:06:29.044Z,37.42
2022-08-22T19:09:23.280Z,37.94
2022-08-22T19:12:03.657Z,37.98
2022-08-22T19:14:55.223Z,38.36
2022-08-22T19:17:55.804Z,38.69
2022-08-22T19:20:47.571Z,38.78
2022-08-22T19:23:48.041Z,39.35
2022-08-22T19:26:44.213Z,39.47
2022-08-22T19:29:49.490Z,39.87
2022-08-22T19:32:46.996Z,40.58
2022-08-22T19:35:20.909Z,40.81
2022-08-22T19:37:53.656Z,41.58
2022-08-22T19:40:50.091Z,41.71
2022-08-22T19:43:27.414Z,42.10
2022-08-22T19:45:56.328Z,42.57
2022-08-22T19:48:28.376Z,42.40
2022-08-22T19:51:14.335Z,43.34
2022-08-22T19:53:56.004Z,43.42
2022-08-22T19:56:37.880Z,43.66
2022-08-22T19:59:19.333Z,43.74
2022-08-22T20:02:03.702Z,44.43
2022-08-22T20:04:57.478Z,44.41
2022-08-22T20:07:43.158Z,44.54
2022-08-22T20:10:23.207Z,44.80
2022-08-22T20:13:04.017Z,44.92
2022-08-22T20:15:35.679Z,45.42
2022-08-22T20:18:12.103Z,45.59
2022-08-22T20:21:00.204Z,45.22
2022-08-22T20:23:32.185Z,45.77
2022-08-22T20:26:00.261Z,45.53
2022-08-22T20:28:44.310Z,45.91
2022-08-22T20:31:21.515Z,46.17
2022-08-22T20:33:56.375Z,46.21
2022-08-22T20:36:28.798Z,46.47
2022-08-22T20:39:02.803Z,46.43
2022-08-22T20:41:35.514Z,46.85
2022-08-22T20:44:12.371Z,46.51
2022-08-22T20:47:04.492Z,46.91
2022-08-22T20:49:37.383Z,46.65
2022-08-22T20:52:08.689Z,47.40
2022-08-22T20:54:40.377Z,47.42
2022-08-22T20:57:16.231Z,47.32
2022-08-22T20:59:52.772Z,47.74
2022-08-22T21:02:23.896Z,47.55
2022-08-22T21:04:57.379Z,47.49
2022-08-22T21:07:28.190Z,48.33
2022-08-22T21:10:22.623Z,48.05
2022-08-22T21:13:19.584Z,49.00
2022-08-22T21:15:49.554Z,49.04
2022-08-22T21:18:28.445Z,49.78
2022-08-22T21:21:07.042Z,49.69
2022-08-22T21:23:38.801Z,49.80
2022-08-22T21:26:11.086Z,50.45
2022-08-22T21:28:42.872Z,51.55
2022-08-22T21:31:14.070Z,51.70
2022-08-22T21:33:44.687Z,51.74
2022-08-22T21:36:15.974Z,52.13
2022-08-22T21:38:49.165Z,52.18
2022-08-22T21:41:27.136Z,51.95
2022-08-22T21:43:54.879Z,53.32
2022-08-22T21:46:28.559Z,53.72
2022-08-22T21:49:01.329Z,53.60
2022-08-22T21:51:33.759Z,54.52
2022-08-22T21:54:39.559Z,54.41
2022-08-22T21:57:34.673Z,55.03
2022-08-22T22:00:04.793Z,54.96
2022-08-22T22:02:36.807Z,55.64
2022-08-22T22:05:09.039Z,55.70
2022-08-22T22:07:38.539Z,55.34
2022-08-22T22:10:08.616Z,55.05
2022-08-22T22:12:39.515Z,55.29
2022-08-22T22:15:08.035Z,55.42
2022-08-22T22:17:35.723Z,55.09
2022-08-22T22:20:04.006Z,56.35
2022-08-22T22:22:31.818Z,56.63
2022-08-22T22:24:59.428Z,57.19
2022-08-22T22:27:27.624Z,56.40
2022-08-22T22:29:56.538Z,57.27
2022-08-22T22:32:24.316Z,57.97
2022-08-22T22:34:51.920Z,57.93
2022-08-22T22:37:20.272Z,58.34
2022-08-22T22:39:47.918Z,58.48
2022-08-22T22:42:15.695Z,57.92
2022-08-22T22:44:47.400Z,59.05
2022-08-22T22:47:16.582Z,58.11
2022-08-22T22:49:44.967Z,57.87
2022-08-22T22:52:12.578Z,59.14
2022-08-22T22:54:41.185Z,59.26
2022-08-22T22:57:12.778Z,59.16
2022-08-22T22:59:41.545Z,59.35
